createdAt,value
2023-03-28T00:01:02.878Z,98835.09
2023-03-28T00:03:30.122Z,98840.94
2023-03-28T00:06:01.160Z,98835.00
2023-03-28T00:08:28.903Z,98839.50
2023-03-28T00:11:03.785Z,98833.66
2023-03-28T00:13:30.969Z,98823.16
2023-03-28T00:16:03.951Z,98840.78
2023-03-28T00:18:31.405Z,98840.00
2023-03-28T00:20:59.025Z,98855.69
2023-03-28T00:23:27.900Z,98861.19
2023-03-28T00:25:54.747Z,98858.22
2023-03-28T00:28:21.566Z,98866.00
2023-03-28T00:30:48.452Z,98865.88
2023-03-28T00:33:15.936Z,98876.97
2023-03-28T00:35:42.959Z,98875.63
2023-03-28T00:38:09.898Z,98880.44
2023-03-28T00:40:38.772Z,98885.13
2023-03-28T00:43:14.358Z,98877.78
2023-03-28T00:45:42.597Z,98877.91
2023-03-28T00:48:15.177Z,98879.84
2023-03-28T00:50:47.060Z,98876.88
2023-03-28T00:53:20.130Z,98879.63
2023-03-28T00:55:56.409Z,98882.25
2023-03-28T00:58:27.790Z,98873.78
2023-03-28T01:00:57.587Z,98877.88
2023-03-28T01:03:29.022Z,98872.53
2023-03-28T01:05:57.269Z,98869.34
2023-03-28T01:08:36.708Z,98881.94
2023-03-28T01:11:04.035Z,98887.53
2023-03-28T01:13:37.782Z,98882.25
2023-03-28T01:16:05.862Z,98890.28
2023-03-28T01:18:35.910Z,98889.25
2023-03-28T01:21:06.235Z,98886.25
2023-03-28T01:23:46.705Z,98879.16
2023-03-28T01:26:57.982Z,98885.91
2023-03-28T01:30:02.451Z,98883.50
2023-03-28T01:33:06.526Z,98880.19
2023-03-28T01:35:56.353Z,98891.88
2023-03-28T01:38:35.181Z,98907.19
2023-03-28T01:41:08.070Z,98899.53
2023-03-28T01:43:51.438Z,98887.03
2023-03-28T01:46:27.957Z,98894.03
2023-03-28T01:49:07.901Z,98898.41
2023-03-28T01:51:59.882Z,98892.44
2023-03-28T01:54:33.385Z,98901.13
2023-03-28T01:57:03.278Z,98905.72
2023-03-28T01:59:43.724Z,98908.22
2023-03-28T02:02:32.047Z,98908.91
2023-03-28T02:05:07.939Z,98897.94
2023-03-28T02:07:40.623Z,98901.94
2023-03-28T02:10:12.037Z,98898.41
2023-03-28T02:13:11.647Z,98901.25
2023-03-28T02:15:48.080Z,98901.81
2023-03-28T02:18:37.083Z,98897.72
2023-03-28T02:21:48.952Z,98899.78
2023-03-28T02:24:34.336Z,98904.69
2023-03-28T02:27:11.382Z,98911.47
2023-03-28T02:30:01.430Z,98912.72
2023-03-28T02:32:34.255Z,98909.25
2023-03-28T02:35:04.496Z,98923.91
2023-03-28T02:37:57.412Z,98923.47
2023-03-28T02:40:36.828Z,98911.91
2023-03-28T02:43:45.003Z,98917.97
2023-03-28T02:46:28.739Z,98924.34
2023-03-28T02:49:06.180Z,98943.47
2023-03-28T02:51:42.010Z,98941.03
2023-03-28T02:54:09.439Z,98942.94
2023-03-28T02:56:42.584Z,98957.44
2023-03-28T02:59:32.758Z,98962.16
2023-03-28T03:02:02.028Z,98959.56
2023-03-28T03:04:28.921Z,98971.66
2023-03-28T03:06:56.102Z,98980.31
2023-03-28T03:09:24.241Z,98981.44
2023-03-28T03:11:51.031Z,98968.88
2023-03-28T03:14:17.964Z,98975.16
2023-03-28T03:16:48.967Z,99000.41
2023-03-28T03:19:18.599Z,99003.47
2023-03-28T03:21:45.635Z,99002.06
2023-03-28T03:24:12.490Z,98997.28
2023-03-28T03:26:42.807Z,99024.09
2023-03-28T03:29:15.835Z,99015.22
2023-03-28T03:31:43.164Z,99017.81
2023-03-28T03:34:41.498Z,99023.34
2023-03-28T03:37:11.672Z,98999.53
2023-03-28T03:39:38.599Z,99017.69
2023-03-28T03:42:06.346Z,99019.59
2023-03-28T03:44:33.828Z,99022.91
2023-03-28T03:47:01.022Z,99000.88
2023-03-28T03:49:28.578Z,99009.53
2023-03-28T03:51:57.313Z,99024.69
2023-03-28T03:54:24.133Z,99024.56
2023-03-28T03:56:51.116Z,99004.75
2023-03-28T03:59:18.221Z,99017.91
2023-03-28T04:01:52.920Z,99014.44
2023-03-28T04:04:40.672Z,99024.59
2023-03-28T04:07:31.056Z,99018.75
2023-03-28T04:09:58.226Z,99029.22
2023-03-28T04:12:27.825Z,99006.06
2023-03-28T04:14:56.381Z,99006.69
2023-03-28T04:17:46.628Z,99016.00
2023-03-28T04:20:19.606Z,99007.69
2023-03-28T04:23:02.304Z,99009.28
2023-03-28T04:25:31.719Z,99031.81
2023-03-28T04:28:04.852Z,99027.78
2023-03-28T04:30:38.341Z,99037.28
2023-03-28T04:33:28.622Z,99032.44
2023-03-28T04:36:03.009Z,99056.91
2023-03-28T04:38:32.635Z,99040.84
2023-03-28T04:41:13.801Z,99046.47
2023-03-28T04:44:03.703Z,99062.88
2023-03-28T04:46:36.203Z,99083.78
2023-03-28T04:49:09.650Z,99080.41
2023-03-28T04:51:36.602Z,99092.16
2023-03-28T04:54:03.847Z,99103.75
2023-03-28T04:56:49.579Z,99125.28
2023-03-28T04:59:23.917Z,99115.47
2023-03-28T05:01:51.744Z,99145.56
2023-03-28T05:04:42.485Z,99157.31
2023-03-28T05:07:10.033Z,99172.75
2023-03-28T05:09:38.129Z,99183.72
2023-03-28T05:12:05.750Z,99196.41
2023-03-28T05:14:39.925Z,99194.03
2023-03-28T05:17:14.484Z,99210.78
2023-03-28T05:20:02.113Z,99199.00
2023-03-28T05:22:36.409Z,99203.34
2023-03-28T05:25:06.607Z,99211.38
2023-03-28T05:27:35.767Z,99223.16
2023-03-28T05:30:02.702Z,99199.59
2023-03-28T05:32:31.934Z,99190.50
2023-03-28T05:34:59.057Z,99201.75
2023-03-28T05:37:29.657Z,99202.22
2023-03-28T05:39:58.477Z,99203.13
2023-03-28T05:42:26.164Z,99192.91
2023-03-28T05:44:53.115Z,99183.75
2023-03-28T05:47:54.583Z,99194.66
2023-03-28T05:50:24.075Z,99180.72
2023-03-28T05:52:56.035Z,99187.19
2023-03-28T05:55:23.099Z,99199.81
2023-03-28T05:57:50.061Z,99199.16
2023-03-28T06:00:19.770Z,99200.47
2023-03-28T06:02:47.380Z,99192.47
2023-03-28T06:05:20.703Z,99194.81
2023-03-28T06:07:47.706Z,99191.94
2023-03-28T06:10:18.538Z,99201.19
2023-03-28T06:12:57.154Z,99205.69
2023-03-28T06:15:24.126Z,99242.22
2023-03-28T06:17:51.557Z,99242.25
2023-03-28T06:20:18.690Z,99248.81
2023-03-28T06:22:45.690Z,99242.09
2023-03-28T06:25:12.602Z,99226.69
2023-03-28T06:27:40.928Z,99246.50
2023-03-28T06:30:08.584Z,99241.22
2023-03-28T06:32:45.763Z,99260.44
2023-03-28T06:35:14.742Z,99261.59
2023-03-28T06:37:41.662Z,99241.94
2023-03-28T06:40:09.740Z,99255.06
2023-03-28T06:42:37.322Z,99272.09
2023-03-28T06:45:36.354Z,99267.63
2023-03-28T06:48:07.441Z,99288.53
2023-03-28T06:50:54.469Z,99299.06
2023-03-28T06:53:23.995Z,99300.06
2023-03-28T06:55:52.268Z,99284.94
2023-03-28T06:58:21.480Z,99303.00
2023-03-28T07:00:53.849Z,99330.47
2023-03-28T07:03:36.282Z,99288.31
2023-03-28T07:06:07.129Z,99338.13
2023-03-28T07:08:34.828Z,99323.81
2023-03-28T07:11:02.720Z,99332.22
2023-03-28T07:13:30.511Z,99329.03
2023-03-28T07:16:13.046Z,99357.66
2023-03-28T07:18:41.294Z,99346.81
2023-03-28T07:21:12.779Z,99343.34
2023-03-28T07:23:39.986Z,99330.03
2023-03-28T07:40:02.689Z,99399.81
2023-03-28T07:42:29.982Z,99402.63
2023-03-28T07:44:56.907Z,99404.44
2023-03-28T07:47:24.036Z,99400.03
2023-03-28T07:49:51.304Z,99380.81
2023-03-28T07:52:20.796Z,99387.47
2023-03-28T07:54:47.720Z,99399.63
2023-03-28T07:57:14.841Z,99398.72
2023-03-28T07:59:44.282Z,99406.94
2023-03-28T08:02:13.070Z,99407.25
2023-03-28T08:04:40.059Z,99408.84
2023-03-28T08:07:09.808Z,99429.19
2023-03-28T08:09:38.871Z,99428.03
2023-03-28T08:12:21.484Z,99449.66
2023-03-28T08:14:48.466Z,99438.28
2023-03-28T08:17:21.353Z,99443.59
2023-03-28T08:19:48.400Z,99440.91
2023-03-28T08:22:27.560Z,99447.50
2023-03-28T08:25:17.833Z,99414.72
2023-03-28T08:27:45.600Z,99437.22
2023-03-28T08:30:13.691Z,99427.19
2023-03-28T08:32:54.562Z,99417.91
2023-03-28T08:35:21.492Z,99433.50
2023-03-28T08:37:52.344Z,99433.00
2023-03-28T08:40:20.885Z,99437.78
2023-03-28T08:43:23.922Z,99429.19
2023-03-28T08:45:57.860Z,99428.78
2023-03-28T08:48:42.085Z,99435.91
2023-03-28T08:51:26.352Z,99432.34
2023-03-28T08:54:24.304Z,99430.03
2023-03-28T08:56:54.188Z,99437.91
2023-03-28T08:59:43.485Z,99426.69
2023-03-28T09:02:26.676Z,99427.97
2023-03-28T09:05:02.028Z,99431.00
2023-03-28T09:08:19.944Z,99437.72
2023-03-28T09:11:01.961Z,99444.50
2023-03-28T09:13:51.060Z,99444.75
2023-03-28T09:16:53.475Z,99459.25
2023-03-28T09:19:48.993Z,99458.81
2023-03-28T09:22:57.597Z,99455.88
2023-03-28T09:25:35.370Z,99472.34
2023-03-28T09:28:18.258Z,99497.19
2023-03-28T09:30:48.807Z,99505.00
2023-03-28T09:33:27.226Z,99515.16
2023-03-28T09:35:57.320Z,99531.38
2023-03-28T09:38:42.231Z,99545.22
2023-03-28T09:41:19.502Z,99560.16
2023-03-28T09:43:54.809Z,99555.16
2023-03-28T09:46:42.752Z,99586.16
2023-03-28T09:49:25.029Z,99591.19
2023-03-28T09:51:59.166Z,99598.09
2023-03-28T09:54:31.173Z,99607.94
2023-03-28T09:57:01.409Z,99613.97
2023-03-28T09:59:58.151Z,99617.13
2023-03-28T10:02:32.980Z,99631.13
2023-03-28T10:05:30.864Z,99635.16
2023-03-28T10:08:06.417Z,99636.63
2023-03-28T10:10:55.503Z,99650.41
2023-03-28T10:13:24.110Z,99661.38
2023-03-28T10:15:51.439Z,99657.97
2023-03-28T10:18:39.631Z,99657.72
2023-03-28T10:21:21.226Z,99657.53
2023-03-28T10:24:07.844Z,99660.75
2023-03-28T10:26:36.614Z,99660.59
2023-03-28T10:29:08.767Z,99666.88
2023-03-28T10:31:39.680Z,99672.69
2023-03-28T10:34:28.133Z,99682.22
2023-03-28T10:37:24.384Z,99681.06
2023-03-28T10:40:20.485Z,99688.50
2023-03-28T10:43:14.620Z,99702.38
2023-03-28T10:46:05.953Z,99697.06
2023-03-28T10:49:04.909Z,99716.19
2023-03-28T10:51:33.818Z,99709.06
2023-03-28T10:54:06.688Z,99709.06
2023-03-28T10:56:35.074Z,99718.28
2023-03-28T10:59:42.155Z,99722.81
2023-03-28T11:02:42.562Z,99721.16
2023-03-28T11:05:42.620Z,99730.88
2023-03-28T11:08:46.159Z,99735.25
2023-03-28T11:11:29.762Z,99752.84
2023-03-28T11:14:16.795Z,99736.19
2023-03-28T11:16:56.378Z,99754.16
2023-03-28T11:19:44.457Z,99742.66
2023-03-28T11:22:37.479Z,99745.72
2023-03-28T11:25:17.349Z,99741.22
2023-03-28T11:28:32.821Z,99751.38
2023-03-28T11:31:15.933Z,99751.06
2023-03-28T11:34:00.012Z,99755.59
2023-03-28T11:36:54.054Z,99750.25
2023-03-28T11:39:46.043Z,99753.50
2023-03-28T11:42:24.484Z,99750.91
2023-03-28T11:45:46.655Z,99752.03
2023-03-28T11:49:08.832Z,99749.13
2023-03-28T11:51:45.849Z,99740.88
2023-03-28T11:54:19.113Z,99734.59
2023-03-28T11:57:02.035Z,99752.34
2023-03-28T11:59:48.271Z,99757.38
2023-03-28T12:02:30.729Z,99763.50
2023-03-28T12:05:06.223Z,99769.34
2023-03-28T12:07:48.424Z,99766.59
2023-03-28T12:10:36.669Z,99768.38
2023-03-28T12:13:28.151Z,99768.66
2023-03-28T12:16:09.211Z,99760.13
2023-03-28T12:18:47.249Z,99776.78
2023-03-28T12:21:49.444Z,99779.38
2023-03-28T12:24:27.850Z,99789.22
2023-03-28T12:27:25.622Z,99791.31
2023-03-28T12:30:21.438Z,99802.63
2023-03-28T12:33:26.149Z,99809.91
2023-03-28T12:36:22.087Z,99820.72
2023-03-28T12:39:10.103Z,99812.94
2023-03-28T12:41:41.199Z,99825.53
2023-03-28T12:44:22.940Z,99833.53
2023-03-28T12:46:59.826Z,99840.38
2023-03-28T12:49:48.638Z,99834.44
2023-03-28T12:52:27.308Z,99835.53
2023-03-28T12:55:02.090Z,99841.22
2023-03-28T12:58:13.672Z,99846.34
2023-03-28T13:01:09.723Z,99854.63
2023-03-28T13:04:06.605Z,99859.72
2023-03-28T13:07:03.352Z,99850.84
2023-03-28T13:09:49.592Z,99847.81
2023-03-28T13:12:31.000Z,99859.63
2023-03-28T13:15:03.666Z,99846.19
2023-03-28T13:17:33.017Z,99843.09
2023-03-28T13:20:24.280Z,99853.09
2023-03-28T13:23:02.334Z,99860.28
2023-03-28T13:25:37.002Z,99857.44
2023-03-28T13:28:13.161Z,99858.34
2023-03-28T13:30:45.140Z,99857.75
2023-03-28T13:33:27.188Z,99866.97
2023-03-28T13:36:00.359Z,99866.53
2023-03-28T13:38:27.413Z,99879.63
2023-03-28T13:41:09.459Z,99877.19
2023-03-28T13:43:55.141Z,99891.16
2023-03-28T13:46:37.013Z,99901.94
2023-03-28T13:49:18.295Z,99887.50
2023-03-28T13:51:54.808Z,99897.47
2023-03-28T13:54:22.727Z,99921.06
2023-03-28T13:56:52.550Z,99913.00
2023-03-28T13:59:25.300Z,99923.63
2023-03-28T14:01:57.566Z,99922.19
2023-03-28T14:04:32.001Z,99928.19
2023-03-28T14:06:58.951Z,99912.97
2023-03-28T14:09:28.855Z,99917.44
2023-03-28T14:12:05.807Z,99924.34
2023-03-28T14:14:39.655Z,99934.31
2023-03-28T14:17:12.131Z,99939.19
2023-03-28T14:19:46.892Z,99963.09
2023-03-28T14:22:19.323Z,99955.94
2023-03-28T14:24:50.641Z,99966.78
2023-03-28T14:27:30.652Z,99972.84
2023-03-28T14:29:59.732Z,99980.94
2023-03-28T14:32:33.002Z,99993.66
2023-03-28T14:35:21.404Z,99997.91
2023-03-28T14:37:49.638Z,100001.88
2023-03-28T14:40:38.153Z,100006.22
2023-03-28T14:43:19.986Z,100007.16
2023-03-28T14:45:52.760Z,100015.66
2023-03-28T14:48:29.785Z,100021.78
2023-03-28T14:50:59.017Z,100026.19
2023-03-28T14:53:28.519Z,100032.53
2023-03-28T14:56:02.154Z,100034.66
2023-03-28T14:58:31.203Z,100033.84
2023-03-28T15:01:02.023Z,100038.06
2023-03-28T15:03:35.789Z,100027.84
2023-03-28T15:06:03.829Z,100027.13
2023-03-28T15:08:37.957Z,100029.84
2023-03-28T15:11:29.353Z,100032.72
2023-03-28T15:14:04.820Z,100033.41
2023-03-28T15:16:36.134Z,100046.19
2023-03-28T15:19:09.443Z,100048.41
2023-03-28T15:21:39.088Z,100055.22
2023-03-28T15:24:09.858Z,100061.31
2023-03-28T15:26:42.181Z,100064.66
2023-03-28T15:29:10.309Z,100071.25
2023-03-28T15:31:40.905Z,100066.69
2023-03-28T15:34:13.062Z,100071.75
2023-03-28T15:36:49.155Z,100081.09
2023-03-28T15:39:28.079Z,100080.50
2023-03-28T15:42:00.301Z,100089.94
2023-03-28T15:44:38.665Z,100086.78
2023-03-28T15:47:13.264Z,100085.38
2023-03-28T15:49:40.638Z,100086.63
2023-03-28T15:52:16.912Z,100106.19
2023-03-28T15:54:48.573Z,100107.09
2023-03-28T15:57:17.864Z,100100.72
2023-03-28T15:59:51.201Z,100098.34
2023-03-28T16:02:24.262Z,100107.94
2023-03-28T16:05:15.487Z,100106.38
2023-03-28T16:07:48.756Z,100108.84
2023-03-28T16:10:21.179Z,100113.78
2023-03-28T16:13:14.544Z,100114.22
2023-03-28T16:16:05.490Z,100112.75
2023-03-28T16:18:55.871Z,100123.44
2023-03-28T16:21:22.847Z,100124.34
2023-03-28T16:23:49.843Z,100139.09
2023-03-28T16:26:16.776Z,100149.34
2023-03-28T16:28:43.740Z,100147.59
2023-03-28T16:31:15.672Z,100151.78
2023-03-28T16:33:42.743Z,100158.00
2023-03-28T16:36:12.505Z,100156.66
2023-03-28T16:38:39.535Z,100166.75
2023-03-28T16:41:07.098Z,100179.66
2023-03-28T16:43:35.208Z,100178.78
2023-03-28T16:46:02.796Z,100187.63
2023-03-28T16:48:32.130Z,100190.09
2023-03-28T16:51:04.688Z,100194.22
2023-03-28T16:53:33.459Z,100194.19
2023-03-28T16:56:01.224Z,100191.38
2023-03-28T16:58:29.678Z,100198.47
2023-03-28T17:00:57.321Z,100203.66
2023-03-28T17:03:24.572Z,100202.47
2023-03-28T17:05:51.649Z,100209.69
2023-03-28T17:08:18.595Z,100208.94
2023-03-28T17:10:45.675Z,100209.19
2023-03-28T17:13:12.551Z,100217.06
2023-03-28T17:15:39.530Z,100218.59
2023-03-28T17:18:06.572Z,100230.22
2023-03-28T17:20:33.624Z,100230.03
2023-03-28T17:23:00.544Z,100234.13
2023-03-28T17:25:27.640Z,100239.47
2023-03-28T17:27:54.494Z,100234.66
2023-03-28T17:30:21.789Z,100239.75
2023-03-28T17:32:49.240Z,100241.69
2023-03-28T17:35:16.962Z,100253.69
2023-03-28T17:37:43.917Z,100259.53
2023-03-28T17:40:11.605Z,100266.09
2023-03-28T17:42:38.509Z,100273.28
2023-03-28T17:45:07.290Z,100268.63
2023-03-28T17:47:34.794Z,100277.50
2023-03-28T17:50:02.359Z,100273.66
2023-03-28T17:52:32.347Z,100280.97
2023-03-28T17:54:59.418Z,100284.06
2023-03-28T17:57:26.673Z,100293.97
2023-03-28T17:59:54.672Z,100287.88
2023-03-28T18:02:21.763Z,100296.94
2023-03-28T18:05:00.889Z,100300.28
2023-03-28T18:07:31.568Z,100308.78
2023-03-28T18:10:01.589Z,100315.50
2023-03-28T18:12:28.648Z,100310.63
2023-03-28T18:14:58.949Z,100310.41
2023-03-28T18:17:28.091Z,100302.28
2023-03-28T18:19:54.973Z,100313.63
2023-03-28T18:22:22.219Z,100306.22
2023-03-28T18:24:49.060Z,100323.38
2023-03-28T18:27:15.951Z,100327.38
2023-03-28T18:29:42.905Z,100333.28
2023-03-28T18:32:09.892Z,100335.91
2023-03-28T18:34:36.793Z,100345.75
2023-03-28T18:37:04.404Z,100352.09
2023-03-28T18:39:31.725Z,100357.53
2023-03-28T18:41:58.681Z,100359.53
2023-03-28T18:44:25.554Z,100370.16
2023-03-28T18:46:54.938Z,100373.47
2023-03-28T18:49:22.823Z,100383.34
2023-03-28T18:51:49.812Z,100375.03
2023-03-28T18:54:17.379Z,100375.59
2023-03-28T18:56:44.830Z,100380.69
2023-03-28T18:59:12.051Z,100378.06
2023-03-28T19:01:42.327Z,100378.44
2023-03-28T19:04:11.970Z,100394.53
2023-03-28T19:06:39.808Z,100391.81
2023-03-28T19:09:06.900Z,100396.25
2023-03-28T19:11:33.919Z,100394.53
2023-03-28T19:14:00.823Z,100409.84
2023-03-28T19:16:28.117Z,100399.00
2023-03-28T19:18:55.130Z,100407.66
2023-03-28T19:21:22.060Z,100415.88
2023-03-28T19:23:49.175Z,100427.69
2023-03-28T19:26:18.389Z,100419.72
2023-03-28T19:42:02.505Z,100460.59
2023-03-28T19:44:29.446Z,100453.50
2023-03-28T19:46:56.365Z,100460.06
2023-03-28T19:49:23.400Z,100457.34
2023-03-28T19:52:12.979Z,100473.97
2023-03-28T19:54:39.957Z,100471.25
2023-03-28T19:57:08.262Z,100470.69
2023-03-28T19:59:35.455Z,100465.53
2023-03-28T20:02:02.421Z,100474.25
2023-03-28T20:04:32.508Z,100477.75
2023-03-28T20:06:59.419Z,100473.69
2023-03-28T20:09:26.362Z,100489.78
2023-03-28T20:11:53.271Z,100497.94
2023-03-28T20:14:21.684Z,100505.03
2023-03-28T20:16:48.876Z,100507.78
2023-03-28T20:19:18.031Z,100512.41
2023-03-28T20:21:45.283Z,100504.78
2023-03-28T20:24:12.207Z,100521.13
2023-03-28T20:26:39.948Z,100524.94
2023-03-28T20:29:10.378Z,100523.84
2023-03-28T20:31:37.533Z,100524.91
2023-03-28T20:34:04.579Z,100538.56
2023-03-28T20:36:34.200Z,100535.00
2023-03-28T20:39:01.976Z,100529.28
2023-03-28T20:41:29.861Z,100542.63
2023-03-28T20:44:03.644Z,100541.53
2023-03-28T20:46:38.141Z,100543.19
2023-03-28T20:49:06.739Z,100542.31
2023-03-28T20:51:37.616Z,100555.72
2023-03-28T20:54:06.539Z,100552.41
2023-03-28T20:56:33.540Z,100564.16
2023-03-28T20:59:00.459Z,100556.28
2023-03-28T21:01:30.320Z,100559.53
2023-03-28T21:03:58.879Z,100558.94
2023-03-28T21:06:33.455Z,100554.59
2023-03-28T21:09:02.916Z,100557.03
2023-03-28T21:11:31.998Z,100563.56
2023-03-28T21:14:00.456Z,100554.06
2023-03-28T21:16:29.171Z,100558.13
2023-03-28T21:18:57.624Z,100551.56
2023-03-28T21:21:26.072Z,100550.25
2023-03-28T21:23:53.324Z,100549.41
2023-03-28T21:26:22.923Z,100555.66
2023-03-28T21:28:52.364Z,100552.69
2023-03-28T21:31:28.288Z,100545.31
2023-03-28T21:33:57.479Z,100563.31
2023-03-28T21:36:25.814Z,100569.09
2023-03-28T21:38:54.879Z,100555.19
2023-03-28T21:41:22.722Z,100563.91
2023-03-28T21:43:50.382Z,100565.53
2023-03-28T21:46:18.848Z,100569.63
2023-03-28T21:48:48.406Z,100576.16
2023-03-28T21:51:17.237Z,100569.88
2023-03-28T21:53:44.621Z,100570.38
2023-03-28T21:56:12.932Z,100580.53
2023-03-28T21:58:40.479Z,100583.81
2023-03-28T22:01:07.845Z,100573.97
2023-03-28T22:03:37.936Z,100577.81
2023-03-28T22:06:05.352Z,100582.72
2023-03-28T22:08:32.618Z,100588.97
2023-03-28T22:11:02.347Z,100588.41
2023-03-28T22:13:30.035Z,100582.19
2023-03-28T22:15:58.589Z,100581.63
2023-03-28T22:18:27.908Z,100593.91
2023-03-28T22:20:55.449Z,100589.84
2023-03-28T22:23:24.094Z,100590.63
2023-03-28T22:25:53.063Z,100589.28
2023-03-28T22:28:24.727Z,100589.28
2023-03-28T22:30:55.687Z,100591.97
2023-03-28T22:33:23.655Z,100590.34
2023-03-28T22:35:50.691Z,100587.34
2023-03-28T22:38:19.328Z,100582.63
2023-03-28T22:40:47.651Z,100590.31
2023-03-28T22:43:15.395Z,100593.63
2023-03-28T22:45:43.046Z,100598.75
2023-03-28T22:48:15.827Z,100607.81
2023-03-28T22:50:44.526Z,100614.09
2023-03-28T22:53:15.177Z,100612.41
2023-03-28T22:55:44.030Z,100600.16
2023-03-28T22:58:14.599Z,100604.81
2023-03-28T23:00:43.890Z,100611.06
2023-03-28T23:03:10.929Z,100604.47
2023-03-28T23:05:37.934Z,100612.16
2023-03-28T23:08:05.597Z,100609.34
2023-03-28T23:10:33.522Z,100616.66
2023-03-28T23:13:00.575Z,100615.13
2023-03-28T23:15:28.067Z,100615.09
2023-03-28T23:17:55.106Z,100616.41
2023-03-28T23:20:22.097Z,100613.19
2023-03-28T23:22:49.118Z,100611.81
2023-03-28T23:25:18.739Z,100610.41
2023-03-28T23:27:46.741Z,100592.41
2023-03-28T23:30:15.428Z,100592.16
2023-03-28T23:32:42.354Z,100589.34
2023-03-28T23:35:10.597Z,100582.84
2023-03-28T23:37:38.539Z,100600.91
2023-03-28T23:40:14.863Z,100607.97
2023-03-28T23:42:44.690Z,100617.56
2023-03-28T23:45:13.950Z,100624.41
2023-03-28T23:47:41.275Z,100627.41
2023-03-28T23:50:12.056Z,100630.69
2023-03-28T23:52:40.031Z,100633.44
2023-03-28T23:55:08.921Z,100639.16
2023-03-28T23:57:36.125Z,100635.59
